sensor_id;sensor_type;location;lat;lon;timestamp;noise_LAeq;noise_LA_min;noise_LA_max;noise_LA01;noise_LA95
52872;Laerm;40124;52.198;9.902;2023-07-29T00:02:00;56.12;34.69;76.49;;
52872;Laerm;40124;52.198;9.902;2023-07-29T00:04:25;60.35;33.90;78.85;;
52872;Laerm;40124;52.198;9.902;2023-07-29T00:06:50;47.08;33.90;68.92;;
52872;Laerm;40124;52.198;9.902;2023-07-29T00:09:15;59.32;33.90;79.66;;
52872;Laerm;40124;52.198;9.902;2023-07-29T00:11:40;41.96;33.44;54.43;;
52872;Laerm;40124;52.198;9.902;2023-07-29T00:14:06;67.70;39.46;87.45;;
52872;Laerm;40124;52.198;9.902;2023-07-29T00:16:31;40.61;33.90;46.45;;
52872;Laerm;40124;52.198;9.902;2023-07-29T00:18:56;59.51;36.20;80.44;;
52872;Laerm;40124;52.198;9.902;2023-07-29T00:21:21;67.77;36.69;88.51;;
52872;Laerm;40124;52.198;9.902;2023-07-29T00:23:46;58.61;36.20;75.48;;
52872;Laerm;40124;52.198;9.902;2023-07-29T00:26:12;57.73;36.45;74.67;;
52872;Laerm;40124;52.198;9.902;2023-07-29T00:28:37;41.23;35.66;46.76;;
52872;Laerm;40124;52.198;9.902;2023-07-29T00:31:02;59.71;35.04;76.60;;
52872;Laerm;40124;52.198;9.902;2023-07-29T00:33:27;59.24;36.34;79.82;;
52872;Laerm;40124;52.198;9.902;2023-07-29T00:35:52;55.23;35.59;74.59;;
52872;Laerm;40124;52.198;9.902;2023-07-29T00:38:18;56.80;35.86;76.71;;
52872;Laerm;40124;52.198;9.902;2023-07-29T00:40:43;40.84;35.04;46.52;;
52872;Laerm;40124;52.198;9.902;2023-07-29T00:43:08;51.56;33.44;73.86;;
52872;Laerm;40124;52.198;9.902;2023-07-29T00:45:33;59.63;36.20;78.95;;
52872;Laerm;40124;52.198;9.902;2023-07-29T00:47:59;55.84;35.94;75.33;;
52872;Laerm;40124;52.198;9.902;2023-07-29T00:50:25;63.79;35.94;82.02;;
52872;Laerm;40124;52.198;9.902;2023-07-29T00:52:52;50.01;34.31;67.38;;
52872;Laerm;40124;52.198;9.902;2023-07-29T00:55:17;60.80;35.36;82.74;;
52872;Laerm;40124;52.198;9.902;2023-07-29T00:57:43;40.60;34.69;46.43;;
52872;Laerm;40124;52.198;9.902;2023-07-29T01:00:13;40.68;35.94;46.43;;
52872;Laerm;40124;52.198;9.902;2023-07-29T01:02:38;44.85;35.94;53.33;;
52872;Laerm;40124;52.198;9.902;2023-07-29T01:05:03;42.54;36.20;53.43;;
52872;Laerm;40124;52.198;9.902;2023-07-29T01:07:39;40.29;35.04;46.66;;
52872;Laerm;40124;52.198;9.902;2023-07-29T01:15:20;62.83;34.31;84.62;;
52872;Laerm;40124;52.198;9.902;2023-07-29T01:17:52;48.05;36.91;66.04;;
52872;Laerm;40124;52.198;9.902;2023-07-29T01:20:19;58.99;38.67;80.63;;
52872;Laerm;40124;52.198;9.902;2023-07-29T01:22:45;59.22;36.45;76.25;;
52872;Laerm;40124;52.198;9.902;2023-07-29T01:25:10;65.79;34.34;89.99;;
52872;Laerm;40124;52.198;9.902;2023-07-29T01:27:35;40.52;35.66;47.96;;
52872;Laerm;40124;52.198;9.902;2023-07-29T01:30:01;60.53;36.91;79.03;;
52872;Laerm;40124;52.198;9.902;2023-07-29T01:32:29;62.44;37.88;77.88;;
52872;Laerm;40124;52.198;9.902;2023-07-29T01:34:59;61.83;35.94;81.79;;
52872;Laerm;40124;52.198;9.902;2023-07-29T01:37:25;54.78;35.04;75.29;;
52872;Laerm;40124;52.198;9.902;2023-07-29T01:39:51;40.72;35.36;52.81;;
52872;Laerm;40124;52.198;9.902;2023-07-29T01:42:18;61.49;35.36;83.79;;
52872;Laerm;40124;52.198;9.902;2023-07-29T01:44:43;59.54;35.66;79.56;;
52872;Laerm;40124;52.198;9.902;2023-07-29T01:47:08;60.17;35.04;77.69;;
52872;Laerm;40124;52.198;9.902;2023-07-29T01:49:35;62.36;36.45;78.29;;
52872;Laerm;40124;52.198;9.902;2023-07-29T01:52:00;61.29;37.12;77.71;;
52872;Laerm;40124;52.198;9.902;2023-07-29T01:54:25;61.46;37.12;81.05;;
52872;Laerm;40124;52.198;9.902;2023-07-29T01:56:50;40.86;35.36;46.57;;
52872;Laerm;40124;52.198;9.902;2023-07-29T01:59:16;42.62;36.20;46.38;;
52872;Laerm;40124;52.198;9.902;2023-07-29T02:01:41;57.18;36.69;77.66;;
52872;Laerm;40124;52.198;9.902;2023-07-29T02:04:07;41.39;34.31;52.67;;
52872;Laerm;40124;52.198;9.902;2023-07-29T02:06:32;56.60;34.31;74.24;;
52872;Laerm;40124;52.198;9.902;2023-07-29T02:08:57;40.34;32.35;46.33;;
52872;Laerm;40124;52.198;9.902;2023-07-29T02:11:23;63.07;33.90;84.43;;
52872;Laerm;40124;52.198;9.902;2023-07-29T02:13:52;62.40;35.04;81.16;;
52872;Laerm;40124;52.198;9.902;2023-07-29T02:16:17;63.79;34.31;84.24;;
52872;Laerm;40124;52.198;9.902;2023-07-29T02:18:43;60.70;39.81;80.69;;
52872;Laerm;40124;52.198;9.902;2023-07-29T02:21:08;41.97;37.12;47.36;;
52872;Laerm;40124;52.198;9.902;2023-07-29T02:23:33;57.67;35.04;76.68;;
52872;Laerm;40124;52.198;9.902;2023-07-29T02:25:58;60.80;35.04;80.09;;
52872;Laerm;40124;52.198;9.902;2023-07-29T02:28:23;55.08;35.04;75.54;;
52872;Laerm;40124;52.198;9.902;2023-07-29T02:30:53;68.71;36.20;87.55;;
52872;Laerm;40124;52.198;9.902;2023-07-29T02:33:33;49.33;37.12;71.03;;
52872;Laerm;40124;52.198;9.902;2023-07-29T02:35:58;40.58;35.36;46.57;;
52872;Laerm;40124;52.198;9.902;2023-07-29T02:38:24;40.25;30.89;46.23;;
52872;Laerm;40124;52.198;9.902;2023-07-29T02:40:49;55.62;33.44;76.46;;
52872;Laerm;40124;52.198;9.902;2023-07-29T02:43:14;56.13;38.21;75.94;;
52872;Laerm;40124;52.198;9.902;2023-07-29T02:45:39;61.13;35.36;82.19;;
52872;Laerm;40124;52.198;9.902;2023-07-29T02:48:04;42.99;35.94;48.88;;
52872;Laerm;40124;52.198;9.902;2023-07-29T02:50:29;54.03;34.31;73.12;;
52872;Laerm;40124;52.198;9.902;2023-07-29T02:52:54;55.61;32.93;76.46;;
52872;Laerm;40124;52.198;9.902;2023-07-29T02:55:20;62.74;34.69;83.37;;
52872;Laerm;40124;52.198;9.902;2023-07-29T02:57:45;59.07;37.12;77.98;;
52872;Laerm;40124;52.198;9.902;2023-07-29T03:00:10;41.30;35.36;47.22;;
52872;Laerm;40124;52.198;9.902;2023-07-29T03:02:35;43.31;39.46;53.88;;
52872;Laerm;40124;52.198;9.902;2023-07-29T03:05:01;43.07;38.52;50.77;;
52872;Laerm;40124;52.198;9.902;2023-07-29T03:07:26;42.41;38.52;46.28;;
52872;Laerm;40124;52.198;9.902;2023-07-29T03:09:51;60.35;39.34;78.35;;
52872;Laerm;40124;52.198;9.902;2023-07-29T03:12:16;59.29;39.46;79.29;;
52872;Laerm;40124;52.198;9.902;2023-07-29T03:14:41;57.69;38.67;76.37;;
52872;Laerm;40124;52.198;9.902;2023-07-29T03:17:06;64.06;39.34;81.34;;
52872;Laerm;40124;52.198;9.902;2023-07-29T03:19:31;65.03;40.03;80.79;;
52872;Laerm;40124;52.198;9.902;2023-07-29T03:21:57;65.54;39.46;86.59;;
52872;Laerm;40124;52.198;9.902;2023-07-29T03:24:22;67.38;38.95;88.21;;
52872;Laerm;40124;52.198;9.902;2023-07-29T03:26:47;59.56;35.66;78.70;;
52872;Laerm;40124;52.198;9.902;2023-07-29T03:29:12;62.98;35.66;77.67;;
52872;Laerm;40124;52.198;9.902;2023-07-29T03:31:37;58.43;37.32;79.38;;
52872;Laerm;40124;52.198;9.902;2023-07-29T03:34:03;55.63;35.36;75.59;;
52872;Laerm;40124;52.198;9.902;2023-07-29T03:36:28;56.76;35.01;76.97;;
52872;Laerm;40124;52.198;9.902;2023-07-29T03:38:53;60.99;36.20;78.39;;
52872;Laerm;40124;52.198;9.902;2023-07-29T03:41:19;59.38;36.45;77.08;;
52872;Laerm;40124;52.198;9.902;2023-07-29T03:43:44;68.41;40.13;85.71;;
52872;Laerm;40124;52.198;9.902;2023-07-29T03:46:09;59.12;36.20;77.46;;
52872;Laerm;40124;52.198;9.902;2023-07-29T03:48:34;63.64;40.33;78.95;;
52872;Laerm;40124;52.198;9.902;2023-07-29T03:51:00;58.12;36.69;78.38;;
52872;Laerm;40124;52.198;9.902;2023-07-29T03:53:25;60.61;37.88;79.30;;
52872;Laerm;40124;52.198;9.902;2023-07-29T03:55:50;65.47;40.53;81.82;;
52872;Laerm;40124;52.198;9.902;2023-07-29T03:58:15;60.49;38.95;78.29;;
52872;Laerm;40124;52.198;9.902;2023-07-29T04:00:40;63.75;37.32;80.63;;
52872;Laerm;40124;52.198;9.902;2023-07-29T04:03:05;67.93;37.52;87.56;;
52872;Laerm;40124;52.198;9.902;2023-07-29T04:05:31;55.74;37.52;75.43;;
52872;Laerm;40124;52.198;9.902;2023-07-29T04:07:56;65.42;39.21;80.62;;
52872;Laerm;40124;52.198;9.902;2023-07-29T04:10:21;56.86;37.12;76.74;;
52872;Laerm;40124;52.198;9.902;2023-07-29T04:12:46;65.88;37.52;86.26;;
52872;Laerm;40124;52.198;9.902;2023-07-29T04:15:12;57.50;37.70;78.64;;
52872;Laerm;40124;52.198;9.902;2023-07-29T04:17:37;64.52;39.21;84.07;;
52872;Laerm;40124;52.198;9.902;2023-07-29T04:20:02;62.64;36.91;80.79;;
52872;Laerm;40124;52.198;9.902;2023-07-29T04:22:27;61.78;39.34;81.73;;
52872;Laerm;40124;52.198;9.902;2023-07-29T04:24:53;64.80;40.43;82.73;;
52872;Laerm;40124;52.198;9.902;2023-07-29T04:27:18;59.21;38.81;77.30;;
52872;Laerm;40124;52.198;9.902;2023-07-29T04:29:44;64.84;38.21;81.87;;
52872;Laerm;40124;52.198;9.902;2023-07-29T04:32:09;62.98;37.32;81.68;;
52872;Laerm;40124;52.198;9.902;2023-07-29T04:34:34;65.84;38.95;80.02;;
52872;Laerm;40124;52.198;9.902;2023-07-29T04:36:59;63.97;40.80;80.26;;
52872;Laerm;40124;52.198;9.902;2023-07-29T04:39:24;64.36;37.70;81.81;;
52872;Laerm;40124;52.198;9.902;2023-07-29T04:41:49;59.36;36.69;80.36;;
52872;Laerm;40124;52.198;9.902;2023-07-29T04:44:15;62.35;37.70;80.85;;
52872;Laerm;40124;52.198;9.902;2023-07-29T04:46:40;61.78;36.69;81.29;;
52872;Laerm;40124;52.198;9.902;2023-07-29T04:49:05;57.61;36.69;78.10;;
52872;Laerm;40124;52.198;9.902;2023-07-29T04:51:30;64.96;35.94;81.51;;
52872;Laerm;40124;52.198;9.902;2023-07-29T04:53:56;66.28;39.70;83.57;;
52872;Laerm;40124;52.198;9.902;2023-07-29T04:56:21;64.87;38.02;84.61;;
52872;Laerm;40124;52.198;9.902;2023-07-29T04:58:47;61.76;36.91;82.24;;
52872;Laerm;40124;52.198;9.902;2023-07-29T05:01:12;62.05;36.91;77.28;;
52872;Laerm;40124;52.198;9.902;2023-07-29T05:03:37;67.93;39.08;85.77;;
52872;Laerm;40124;52.198;9.902;2023-07-29T05:06:04;59.20;40.62;77.12;;
52872;Laerm;40124;52.198;9.902;2023-07-29T05:08:29;61.89;41.06;77.45;;
52872;Laerm;40124;52.198;9.902;2023-07-29T05:10:55;60.84;39.57;76.35;;
52872;Laerm;40124;52.198;9.902;2023-07-29T05:13:21;63.43;39.08;79.56;;
52872;Laerm;40124;52.198;9.902;2023-07-29T05:15:47;65.89;41.61;83.10;;
52872;Laerm;40124;52.198;9.902;2023-07-29T05:18:13;63.19;42.76;78.14;;
52872;Laerm;40124;52.198;9.902;2023-07-29T05:20:38;67.52;41.22;81.79;;
52872;Laerm;40124;52.198;9.902;2023-07-29T05:23:03;64.59;38.81;79.33;;
52872;Laerm;40124;52.198;9.902;2023-07-29T05:25:28;65.65;41.89;78.97;;
52872;Laerm;40124;52.198;9.902;2023-07-29T05:27:54;66.63;44.03;79.43;;
52872;Laerm;40124;52.198;9.902;2023-07-29T05:30:19;66.36;39.92;80.66;;
52872;Laerm;40124;52.198;9.902;2023-07-29T05:32:44;64.13;38.67;79.49;;
52872;Laerm;40124;52.198;9.902;2023-07-29T05:35:10;65.16;38.52;80.02;;
52872;Laerm;40124;52.198;9.902;2023-07-29T05:37:37;67.15;39.34;82.09;;
52872;Laerm;40124;52.198;9.902;2023-07-29T05:40:02;60.85;37.17;80.43;;
52872;Laerm;40124;52.198;9.902;2023-07-29T05:42:28;69.66;38.37;88.50;;
52872;Laerm;40124;52.198;9.902;2023-07-29T05:44:53;65.19;42.35;78.11;;
52872;Laerm;40124;52.198;9.902;2023-07-29T05:47:18;63.59;40.33;78.14;;
52872;Laerm;40124;52.198;9.902;2023-07-29T05:49:43;63.67;38.21;81.28;;
52872;Laerm;40124;52.198;9.902;2023-07-29T05:52:08;68.00;45.77;81.72;;
52872;Laerm;40124;52.198;9.902;2023-07-29T05:54:33;68.91;40.71;84.47;;
52872;Laerm;40124;52.198;9.902;2023-07-29T05:56:58;56.86;38.95;76.22;;
52872;Laerm;40124;52.198;9.902;2023-07-29T05:59:24;64.56;40.80;81.93;;
52872;Laerm;40124;52.198;9.902;2023-07-29T06:01:49;68.76;40.43;81.20;;
52872;Laerm;40124;52.198;9.902;2023-07-29T06:04:14;67.40;41.14;81.82;;
52872;Laerm;40124;52.198;9.902;2023-07-29T06:06:39;64.18;40.23;79.68;;
52872;Laerm;40124;52.198;9.902;2023-07-29T06:09:04;69.62;41.89;83.01;;
52872;Laerm;40124;52.198;9.902;2023-07-29T06:11:29;67.41;42.71;80.97;;
52872;Laerm;40124;52.198;9.902;2023-07-29T06:13:54;69.45;44.65;80.79;;
52872;Laerm;40124;52.198;9.902;2023-07-29T06:16:20;66.75;42.41;81.60;;
52872;Laerm;40124;52.198;9.902;2023-07-29T06:18:45;65.63;44.19;81.28;;
52872;Laerm;40124;52.198;9.902;2023-07-29T06:21:10;66.37;43.99;81.71;;
52872;Laerm;40124;52.198;9.902;2023-07-29T06:23:37;70.52;43.77;83.14;;
52872;Laerm;40124;52.198;9.902;2023-07-29T06:26:02;65.14;38.95;82.58;;
52872;Laerm;40124;52.198;9.902;2023-07-29T06:28:27;64.71;39.70;79.16;;
52872;Laerm;40124;52.198;9.902;2023-07-29T06:30:53;66.48;44.43;81.00;;
52872;Laerm;40124;52.198;9.902;2023-07-29T06:33:18;70.35;44.19;84.54;;
52872;Laerm;40124;52.198;9.902;2023-07-29T06:35:43;69.65;42.82;80.81;;
52872;Laerm;40124;52.198;9.902;2023-07-29T06:38:08;69.95;41.41;83.79;;
52872;Laerm;40124;52.198;9.902;2023-07-29T06:40:34;70.21;45.54;84.13;;
52872;Laerm;40124;52.198;9.902;2023-07-29T06:42:59;68.37;40.62;84.60;;
52872;Laerm;40124;52.198;9.902;2023-07-29T06:45:24;69.43;41.38;84.55;;
52872;Laerm;40124;52.198;9.902;2023-07-29T06:47:49;69.04;41.11;84.18;;
52872;Laerm;40124;52.198;9.902;2023-07-29T06:50:15;68.91;41.68;85.43;;
52872;Laerm;40124;52.198;9.902;2023-07-29T06:52:40;66.70;42.09;81.95;;
52872;Laerm;40124;52.198;9.902;2023-07-29T06:55:05;68.09;43.04;85.67;;
52872;Laerm;40124;52.198;9.902;2023-07-29T06:57:30;70.08;45.77;80.78;;
52872;Laerm;40124;52.198;9.902;2023-07-29T06:59:56;67.19;41.61;82.81;;
52872;Laerm;40124;52.198;9.902;2023-07-29T07:02:21;68.08;40.98;83.71;;
52872;Laerm;40124;52.198;9.902;2023-07-29T07:04:46;68.32;43.90;82.37;;
52872;Laerm;40124;52.198;9.902;2023-07-29T07:07:11;69.93;43.29;81.04;;
52872;Laerm;40124;52.198;9.902;2023-07-29T07:09:36;70.71;46.66;81.47;;
52872;Laerm;40124;52.198;9.902;2023-07-29T07:12:01;69.06;44.11;81.65;;
52872;Laerm;40124;52.198;9.902;2023-07-29T07:14:26;70.21;42.76;80.76;;
52872;Laerm;40124;52.198;9.902;2023-07-29T07:16:52;69.08;45.45;82.03;;
52872;Laerm;40124;52.198;9.902;2023-07-29T07:19:17;69.68;44.03;80.36;;
52872;Laerm;40124;52.198;9.902;2023-07-29T07:21:42;70.32;42.03;82.51;;
52872;Laerm;40124;52.198;9.902;2023-07-29T07:24:07;68.16;42.65;80.36;;
52872;Laerm;40124;52.198;9.902;2023-07-29T07:26:32;69.66;47.06;83.92;;
52872;Laerm;40124;52.198;9.902;2023-07-29T07:28:58;69.60;46.35;83.34;;
52872;Laerm;40124;52.198;9.902;2023-07-29T07:31:23;70.06;43.58;82.62;;
52872;Laerm;40124;52.198;9.902;2023-07-29T07:33:48;68.76;44.39;80.85;;
52872;Laerm;40124;52.198;9.902;2023-07-29T07:36:13;69.28;45.48;81.27;;
52872;Laerm;40124;52.198;9.902;2023-07-29T07:38:38;70.84;50.19;82.54;;
52872;Laerm;40124;52.198;9.902;2023-07-29T07:41:03;68.24;48.69;80.94;;
52872;Laerm;40124;52.198;9.902;2023-07-29T07:43:29;69.11;44.97;80.78;;
52872;Laerm;40124;52.198;9.902;2023-07-29T07:45:58;68.43;45.14;79.67;;
52872;Laerm;40124;52.198;9.902;2023-07-29T07:48:23;71.26;45.54;86.71;;
52872;Laerm;40124;52.198;9.902;2023-07-29T07:50:49;69.42;46.80;82.45;;
52872;Laerm;40124;52.198;9.902;2023-07-29T07:53:14;67.87;41.89;79.75;;
52872;Laerm;40124;52.198;9.902;2023-07-29T07:55:39;67.93;46.38;80.37;;
52872;Laerm;40124;52.198;9.902;2023-07-29T07:58:04;69.58;41.22;86.66;;
52872;Laerm;40124;52.198;9.902;2023-07-29T08:00:29;69.01;44.27;81.86;;
52872;Laerm;40124;52.198;9.902;2023-07-29T08:02:55;69.79;51.84;80.14;;
52872;Laerm;40124;52.198;9.902;2023-07-29T08:05:20;68.82;44.27;80.15;;
52872;Laerm;40124;52.198;9.902;2023-07-29T08:07:45;69.19;45.86;79.68;;
52872;Laerm;40124;52.198;9.902;2023-07-29T08:10:10;69.87;45.91;78.82;;
52872;Laerm;40124;52.198;9.902;2023-07-29T08:12:35;68.42;46.40;85.87;;
52872;Laerm;40124;52.198;9.902;2023-07-29T08:15:00;67.91;43.58;80.12;;
52872;Laerm;40124;52.198;9.902;2023-07-29T08:17:26;70.04;48.18;86.29;;
52872;Laerm;40124;52.198;9.902;2023-07-29T08:19:51;68.99;47.55;81.17;;
52872;Laerm;40124;52.198;9.902;2023-07-29T08:22:16;69.17;47.32;81.80;;
52872;Laerm;40124;52.198;9.902;2023-07-29T08:24:42;67.79;42.16;79.80;;
52872;Laerm;40124;52.198;9.902;2023-07-29T08:27:07;69.27;40.54;82.11;;
52872;Laerm;40124;52.198;9.902;2023-07-29T08:29:32;68.72;39.81;80.41;;
52872;Laerm;40124;52.198;9.902;2023-07-29T08:31:57;66.79;41.96;79.85;;
52872;Laerm;40124;52.198;9.902;2023-07-29T08:34:22;69.17;44.97;80.29;;
52872;Laerm;40124;52.198;9.902;2023-07-29T08:36:48;67.45;43.72;79.20;;
52872;Laerm;40124;52.198;9.902;2023-07-29T08:39:13;68.39;40.89;81.29;;
52872;Laerm;40124;52.198;9.902;2023-07-29T08:41:45;69.18;45.45;79.72;;
52872;Laerm;40124;52.198;9.902;2023-07-29T08:44:18;68.66;44.59;80.78;;
52872;Laerm;40124;52.198;9.902;2023-07-29T08:46:45;68.56;45.30;79.41;;
52872;Laerm;40124;52.198;9.902;2023-07-29T08:49:14;68.53;42.93;79.65;;
52872;Laerm;40124;52.198;9.902;2023-07-29T08:51:41;70.07;39.81;82.86;;
52872;Laerm;40124;52.198;9.902;2023-07-29T08:54:07;67.91;42.29;82.25;;
52872;Laerm;40124;52.198;9.902;2023-07-29T08:56:34;68.25;43.86;81.91;;
52872;Laerm;40124;52.198;9.902;2023-07-29T08:58:59;69.40;47.61;79.64;;
52872;Laerm;40124;52.198;9.902;2023-07-29T09:01:27;66.26;41.14;78.47;;
52872;Laerm;40124;52.198;9.902;2023-07-29T09:03:52;70.05;43.39;79.72;;
52872;Laerm;40124;52.198;9.902;2023-07-29T09:06:17;65.51;42.24;79.32;;
52872;Laerm;40124;52.198;9.902;2023-07-29T09:08:43;68.93;45.83;79.14;;
52872;Laerm;40124;52.198;9.902;2023-07-29T09:11:08;68.22;43.72;80.27;;
52872;Laerm;40124;52.198;9.902;2023-07-29T09:13:34;68.35;45.86;80.03;;
52872;Laerm;40124;52.198;9.902;2023-07-29T09:15:59;68.21;44.76;78.67;;
52872;Laerm;40124;52.198;9.902;2023-07-29T09:18:25;67.95;42.29;81.16;;
52872;Laerm;40124;52.198;9.902;2023-07-29T09:20:51;69.72;43.44;82.34;;
52872;Laerm;40124;52.198;9.902;2023-07-29T09:23:17;68.55;45.27;78.76;;
52872;Laerm;40124;52.198;9.902;2023-07-29T09:25:42;74.46;48.36;91.70;;
52872;Laerm;40124;52.198;9.902;2023-07-29T09:28:11;66.93;43.81;80.45;;
52872;Laerm;40124;52.198;9.902;2023-07-29T09:30:39;68.67;43.44;79.53;;
52872;Laerm;40124;52.198;9.902;2023-07-29T09:33:05;68.09;45.89;79.54;;
52872;Laerm;40124;52.198;9.902;2023-07-29T09:35:32;68.94;42.93;81.19;;
52872;Laerm;40124;52.198;9.902;2023-07-29T09:37:57;69.76;47.40;81.33;;
52872;Laerm;40124;52.198;9.902;2023-07-29T09:40:22;69.14;43.63;81.15;;
52872;Laerm;40124;52.198;9.902;2023-07-29T09:42:48;66.98;43.81;79.46;;
52872;Laerm;40124;52.198;9.902;2023-07-29T09:45:19;70.38;51.75;79.12;;
52872;Laerm;40124;52.198;9.902;2023-07-29T09:47:45;70.06;46.15;81.84;;
52872;Laerm;40124;52.198;9.902;2023-07-29T09:50:11;68.94;43.29;82.28;;
52872;Laerm;40124;52.198;9.902;2023-07-29T09:52:36;67.40;42.09;79.85;;
52872;Laerm;40124;52.198;9.902;2023-07-29T09:55:01;69.80;42.71;82.07;;
52872;Laerm;40124;52.198;9.902;2023-07-29T09:57:26;69.98;42.82;82.03;;
52872;Laerm;40124;52.198;9.902;2023-07-29T09:59:54;70.38;44.76;79.56;;
52872;Laerm;40124;52.198;9.902;2023-07-29T10:02:20;69.79;44.20;81.37;;
52872;Laerm;40124;52.198;9.902;2023-07-29T10:04:45;65.24;41.22;78.86;;
52872;Laerm;40124;52.198;9.902;2023-07-29T10:07:11;67.47;42.76;79.38;;
52872;Laerm;40124;52.198;9.902;2023-07-29T10:09:37;69.09;48.21;80.61;;
52872;Laerm;40124;52.198;9.902;2023-07-29T10:12:03;70.17;43.44;82.04;;
52872;Laerm;40124;52.198;9.902;2023-07-29T10:14:30;69.94;45.57;81.44;;
52872;Laerm;40124;52.198;9.902;2023-07-29T10:16:56;68.87;43.63;79.75;;
52872;Laerm;40124;52.198;9.902;2023-07-29T10:19:22;69.74;44.54;80.90;;
52872;Laerm;40124;52.198;9.902;2023-07-29T10:21:47;68.78;45.57;80.41;;
52872;Laerm;40124;52.198;9.902;2023-07-29T10:24:18;67.66;43.34;79.39;;
52872;Laerm;40124;52.198;9.902;2023-07-29T10:26:44;68.89;41.46;81.21;;
52872;Laerm;40124;52.198;9.902;2023-07-29T10:29:11;68.03;41.22;79.49;;
52872;Laerm;40124;52.198;9.902;2023-07-29T10:31:37;71.88;42.53;93.10;;
52872;Laerm;40124;52.198;9.902;2023-07-29T10:34:03;68.69;43.04;82.06;;
52872;Laerm;40124;52.198;9.902;2023-07-29T10:36:28;69.42;46.43;81.55;;
52872;Laerm;40124;52.198;9.902;2023-07-29T10:38:54;70.61;44.83;84.25;;
52872;Laerm;40124;52.198;9.902;2023-07-29T10:41:19;69.11;43.24;84.25;;
52872;Laerm;40124;52.198;9.902;2023-07-29T10:43:44;69.43;43.94;81.45;;
52872;Laerm;40124;52.198;9.902;2023-07-29T10:46:16;70.06;46.07;81.35;;
52872;Laerm;40124;52.198;9.902;2023-07-29T10:48:42;70.48;44.65;86.24;;
52872;Laerm;40124;52.198;9.902;2023-07-29T10:53:58;68.52;42.16;82.35;;
52872;Laerm;40124;52.198;9.902;2023-07-29T10:56:33;68.14;45.48;80.36;;
52872;Laerm;40124;52.198;9.902;2023-07-29T10:58:59;68.53;43.14;80.43;;
52872;Laerm;40124;52.198;9.902;2023-07-29T11:01:27;69.39;42.71;79.76;;
52872;Laerm;40124;52.198;9.902;2023-07-29T11:07:01;68.33;41.82;80.43;;
52872;Laerm;40124;52.198;9.902;2023-07-29T11:09:41;69.65;44.90;81.72;;
52872;Laerm;40124;52.198;9.902;2023-07-29T11:14:50;68.09;46.07;78.94;;
52872;Laerm;40124;52.198;9.902;2023-07-29T11:17:15;70.08;44.35;80.13;;
52872;Laerm;40124;52.198;9.902;2023-07-29T11:19:40;65.81;44.15;77.87;;
52872;Laerm;40124;52.198;9.902;2023-07-29T11:22:06;68.81;45.14;81.57;;
52872;Laerm;40124;52.198;9.902;2023-07-29T11:24:31;67.10;42.53;86.67;;
52872;Laerm;40124;52.198;9.902;2023-07-29T11:26:56;69.70;47.52;80.36;;
52872;Laerm;40124;52.198;9.902;2023-07-29T11:29:21;67.76;41.68;80.32;;
52872;Laerm;40124;52.198;9.902;2023-07-29T11:31:46;69.66;42.16;81.24;;
52872;Laerm;40124;52.198;9.902;2023-07-29T11:34:12;69.51;49.43;79.29;;
52872;Laerm;40124;52.198;9.902;2023-07-29T11:36:44;69.53;44.58;80.36;;
52872;Laerm;40124;52.198;9.902;2023-07-29T11:39:10;70.54;42.71;84.12;;
52872;Laerm;40124;52.198;9.902;2023-07-29T11:41:36;68.38;45.01;79.57;;
52872;Laerm;40124;52.198;9.902;2023-07-29T11:44:01;70.44;46.89;81.99;;
52872;Laerm;40124;52.198;9.902;2023-07-29T11:46:26;67.81;44.47;79.96;;
52872;Laerm;40124;52.198;9.902;2023-07-29T11:48:53;68.83;46.30;81.28;;
52872;Laerm;40124;52.198;9.902;2023-07-29T11:51:18;67.59;42.22;81.11;;
52872;Laerm;40124;52.198;9.902;2023-07-29T11:53:43;69.08;47.18;80.52;;
52872;Laerm;40124;52.198;9.902;2023-07-29T11:56:09;69.76;43.34;80.47;;
52872;Laerm;40124;52.198;9.902;2023-07-29T11:58:35;73.75;43.63;90.73;;
52872;Laerm;40124;52.198;9.902;2023-07-29T12:01:01;68.57;43.90;80.37;;
52872;Laerm;40124;52.198;9.902;2023-07-29T12:03:26;66.21;44.03;77.98;;
52872;Laerm;40124;52.198;9.902;2023-07-29T12:05:52;67.94;41.46;79.03;;
52872;Laerm;40124;52.198;9.902;2023-07-29T12:08:17;68.55;43.81;87.55;;
52872;Laerm;40124;52.198;9.902;2023-07-29T12:10:42;70.63;48.84;83.74;;
52872;Laerm;40124;52.198;9.902;2023-07-29T12:13:08;70.45;46.89;82.10;;
52872;Laerm;40124;52.198;9.902;2023-07-29T12:15:34;69.21;42.22;80.91;;
52872;Laerm;40124;52.198;9.902;2023-07-29T12:17:59;69.80;47.06;84.74;;
52872;Laerm;40124;52.198;9.902;2023-07-29T12:20:25;69.10;49.07;82.06;;
52872;Laerm;40124;52.198;9.902;2023-07-29T12:22:54;67.54;44.94;82.22;;
52872;Laerm;40124;52.198;9.902;2023-07-29T12:25:19;67.72;42.16;81.31;;
52872;Laerm;40124;52.198;9.902;2023-07-29T12:27:44;67.70;40.80;80.51;;
52872;Laerm;40124;52.198;9.902;2023-07-29T12:30:10;68.44;50.68;79.51;;
52872;Laerm;40124;52.198;9.902;2023-07-29T12:32:42;66.88;43.37;80.53;;
52872;Laerm;40124;52.198;9.902;2023-07-29T12:35:09;69.58;46.43;81.20;;
52872;Laerm;40124;52.198;9.902;2023-07-29T12:37:34;68.78;42.93;80.57;;
52872;Laerm;40124;52.198;9.902;2023-07-29T12:39:59;69.22;46.71;82.77;;
52872;Laerm;40124;52.198;9.902;2023-07-29T12:42:25;71.06;45.27;87.59;;
52872;Laerm;40124;52.198;9.902;2023-07-29T12:44:50;68.55;46.23;79.71;;
52872;Laerm;40124;52.198;9.902;2023-07-29T12:47:15;67.92;47.61;80.33;;
52872;Laerm;40124;52.198;9.902;2023-07-29T12:49:40;69.37;44.07;80.55;;
52872;Laerm;40124;52.198;9.902;2023-07-29T12:52:05;71.25;44.54;90.11;;
52872;Laerm;40124;52.198;9.902;2023-07-29T12:54:30;67.40;44.90;79.45;;
52872;Laerm;40124;52.198;9.902;2023-07-29T12:56:56;67.41;45.11;80.53;;
52872;Laerm;40124;52.198;9.902;2023-07-29T12:59:21;68.33;43.28;80.98;;
52872;Laerm;40124;52.198;9.902;2023-07-29T13:01:46;68.13;42.88;85.18;;
52872;Laerm;40124;52.198;9.902;2023-07-29T13:04:11;69.27;48.32;81.08;;
52872;Laerm;40124;52.198;9.902;2023-07-29T13:06:37;66.78;43.00;79.62;;
52872;Laerm;40124;52.198;9.902;2023-07-29T13:09:02;68.08;41.82;78.18;;
52872;Laerm;40124;52.198;9.902;2023-07-29T13:11:28;68.60;47.22;80.03;;
52872;Laerm;40124;52.198;9.902;2023-07-29T13:13:53;71.13;49.07;86.07;;
52872;Laerm;40124;52.198;9.902;2023-07-29T13:16:18;67.02;42.41;79.43;;
52872;Laerm;40124;52.198;9.902;2023-07-29T13:18:44;69.83;47.84;82.64;;
52872;Laerm;40124;52.198;9.902;2023-07-29T13:21:09;68.52;44.07;79.68;;
52872;Laerm;40124;52.198;9.902;2023-07-29T13:23:34;69.44;48.58;82.21;;
52872;Laerm;40124;52.198;9.902;2023-07-29T13:26:00;67.53;54.24;79.67;;
52872;Laerm;40124;52.198;9.902;2023-07-29T13:28:25;68.29;45.45;80.34;;
52872;Laerm;40124;52.198;9.902;2023-07-29T13:30:50;69.05;46.62;81.63;;
52872;Laerm;40124;52.198;9.902;2023-07-29T13:33:15;67.68;45.91;80.27;;
52872;Laerm;40124;52.198;9.902;2023-07-29T13:35:41;67.28;44.80;79.04;;
52872;Laerm;40124;52.198;9.902;2023-07-29T13:38:06;66.94;50.81;80.79;;
52872;Laerm;40124;52.198;9.902;2023-07-29T13:40:32;66.94;44.07;77.53;;
52872;Laerm;40124;52.198;9.902;2023-07-29T13:42:57;67.33;44.62;78.58;;
52872;Laerm;40124;52.198;9.902;2023-07-29T13:45:22;67.71;44.03;80.28;;
52872;Laerm;40124;52.198;9.902;2023-07-29T13:47:48;66.21;46.54;80.59;;
52872;Laerm;40124;52.198;9.902;2023-07-29T13:50:15;69.00;51.78;81.64;;